createdAt,value
2023-03-06T00:01:00.419Z,49
2023-03-06T00:03:00.577Z,48
2023-03-06T00:05:00.655Z,48
2023-03-06T00:07:00.761Z,52
2023-03-06T00:09:00.882Z,52
2023-03-06T00:11:00.984Z,46
2023-03-06T00:13:01.130Z,43
2023-03-06T00:15:01.210Z,42
2023-03-06T00:17:01.319Z,41
2023-03-06T00:19:01.432Z,38
2023-03-06T00:21:01.565Z,36
2023-03-06T00:23:01.675Z,38
2023-03-06T00:25:01.774Z,38
2023-03-06T00:27:01.888Z,38
2023-03-06T00:29:02.022Z,40
2023-03-06T00:31:02.119Z,39
2023-03-06T00:33:02.239Z,40
2023-03-06T00:35:02.343Z,40
2023-03-06T00:37:02.470Z,40
2023-03-06T00:39:02.612Z,41
2023-03-06T00:41:02.692Z,44
2023-03-06T00:45:02.945Z,42
2023-03-06T00:47:03.030Z,43
2023-03-06T00:49:03.144Z,44
2023-03-06T00:51:03.285Z,41
2023-03-06T00:53:03.372Z,43
2023-03-06T00:55:03.492Z,37
2023-03-06T00:57:03.621Z,32
2023-03-06T00:59:03.797Z,34
2023-03-06T01:01:03.929Z,32
2023-03-06T01:03:03.991Z,31
2023-03-06T01:05:04.148Z,28
2023-03-06T01:07:04.228Z,28
2023-03-06T01:09:04.352Z,29
2023-03-06T01:11:04.443Z,29
2023-03-06T01:15:04.695Z,28
2023-03-06T01:17:04.793Z,30
2023-03-06T01:19:04.978Z,30
2023-03-06T01:21:05.029Z,34
2023-03-06T01:23:05.176Z,37
2023-03-06T01:25:05.332Z,33
2023-03-06T01:27:05.409Z,35
2023-03-06T01:29:05.516Z,35
2023-03-06T01:31:05.646Z,36
2023-03-06T01:33:05.776Z,35
2023-03-06T01:35:05.865Z,34
2023-03-06T01:37:06.053Z,34
2023-03-06T01:39:06.077Z,33
2023-03-06T01:41:06.205Z,34
2023-03-06T01:43:06.297Z,34
2023-03-06T01:45:06.400Z,37
2023-03-06T01:47:06.501Z,37
2023-03-06T01:49:06.627Z,27
2023-03-06T01:51:06.739Z,28
2023-03-06T01:53:06.876Z,32
2023-03-06T01:55:06.996Z,35
2023-03-06T01:57:07.145Z,33
2023-03-06T01:59:07.206Z,28
2023-03-06T02:01:07.408Z,27
2023-03-06T02:03:07.440Z,25
2023-03-06T02:05:07.555Z,24
2023-03-06T02:07:07.649Z,23
2023-03-06T02:09:07.758Z,21
2023-03-06T02:11:08.010Z,24
2023-03-06T02:13:07.985Z,21
2023-03-06T02:15:08.107Z,22
2023-03-06T02:17:08.245Z,21
2023-03-06T02:19:08.358Z,19
2023-03-06T02:21:08.450Z,20
2023-03-06T02:23:08.575Z,19
2023-03-06T02:25:08.661Z,18
2023-03-06T02:27:08.770Z,19
2023-03-06T02:29:08.913Z,18
2023-03-06T02:31:09.220Z,19
2023-03-06T02:33:09.115Z,18
2023-03-06T02:35:09.223Z,19
2023-03-06T02:37:09.323Z,18
2023-03-06T02:39:09.420Z,18
2023-03-06T02:41:09.556Z,19
2023-03-06T02:43:09.755Z,19
2023-03-06T02:45:09.756Z,19
2023-03-06T02:47:09.915Z,19
2023-03-06T02:49:10.002Z,19
2023-03-06T02:51:10.121Z,19
2023-03-06T02:53:10.221Z,18
2023-03-06T02:57:10.437Z,19
2023-03-06T02:59:10.574Z,19
2023-03-06T03:01:10.706Z,18
2023-03-06T03:03:10.779Z,18
2023-03-06T03:05:10.900Z,19
2023-03-06T03:07:11.016Z,20
2023-03-06T03:09:11.135Z,19
2023-03-06T03:11:11.250Z,19
2023-03-06T03:13:11.389Z,20
2023-03-06T03:17:11.601Z,19
2023-03-06T03:19:11.726Z,17
2023-03-06T03:25:12.032Z,19
2023-03-06T03:27:12.102Z,19
2023-03-06T03:31:12.387Z,19
2023-03-06T03:33:12.432Z,18
2023-03-06T03:35:12.553Z,17
2023-03-06T03:36:42.592Z,18
2023-03-06T03:38:42.684Z,17
2023-03-06T03:41:12.801Z,20
2023-03-06T03:44:43.047Z,20
2023-03-06T03:46:43.087Z,19
2023-03-06T03:48:43.102Z,18
2023-03-06T03:50:43.247Z,18
2023-03-06T03:52:43.291Z,17
2023-03-06T03:57:13.502Z,19
2023-03-06T03:59:13.593Z,18
2023-03-06T04:03:13.783Z,20
2023-03-06T04:05:13.863Z,21
2023-03-06T04:06:43.911Z,20
2023-03-06T04:09:14.004Z,22
2023-03-06T04:10:44.114Z,22
2023-03-06T04:13:14.178Z,22
2023-03-06T04:15:14.292Z,21
2023-03-06T04:17:14.375Z,22
2023-03-06T04:19:14.476Z,22
2023-03-06T04:21:14.601Z,22
2023-03-06T04:23:14.682Z,23
2023-03-06T04:27:14.838Z,24
2023-03-06T04:31:15.112Z,27
2023-03-06T04:33:15.165Z,25
2023-03-06T04:35:15.238Z,25
2023-03-06T04:38:45.479Z,26
2023-03-06T04:40:45.499Z,23
2023-03-06T04:42:45.586Z,22
2023-03-06T04:44:45.647Z,22
2023-03-06T04:46:45.721Z,21
2023-03-06T04:50:45.975Z,21
2023-03-06T04:52:45.999Z,20
2023-03-06T04:54:46.093Z,22
2023-03-06T04:56:46.190Z,21
2023-03-06T04:58:46.263Z,20
2023-03-06T05:00:46.409Z,21
2023-03-06T05:02:46.449Z,20
2023-03-06T05:04:46.541Z,22
2023-03-06T05:06:46.608Z,23
2023-03-06T05:08:46.708Z,28
2023-03-06T05:10:46.781Z,39
2023-03-06T05:12:46.869Z,40
2023-03-06T05:14:48.032Z,39
2023-03-06T05:16:47.121Z,38
2023-03-06T05:18:49.412Z,37
2023-03-06T05:20:47.254Z,41
2023-03-06T05:22:47.355Z,38
2023-03-06T05:24:47.403Z,34
2023-03-06T05:26:47.570Z,35
2023-03-06T05:30:47.677Z,35
2023-03-06T05:32:47.892Z,34
2023-03-06T05:34:47.854Z,32
2023-03-06T05:36:47.940Z,31
2023-03-06T05:38:48.017Z,29
2023-03-06T05:40:48.129Z,28
2023-03-06T05:42:48.203Z,28
2023-03-06T05:44:48.296Z,29
2023-03-06T05:46:48.377Z,29
2023-03-06T05:48:48.465Z,33
2023-03-06T05:50:48.567Z,37
2023-03-06T05:52:48.600Z,37
2023-03-06T05:54:48.671Z,42
2023-03-06T05:56:48.832Z,42
2023-03-06T05:58:48.951Z,37
2023-03-06T06:00:48.930Z,37
2023-03-06T06:02:49.025Z,39
2023-03-06T06:04:49.088Z,39
2023-03-06T06:06:49.181Z,32
2023-03-06T06:08:49.241Z,33
2023-03-06T06:10:52.156Z,35
2023-03-06T06:12:49.419Z,35
2023-03-06T06:14:49.510Z,35
2023-03-06T06:16:49.635Z,36
2023-03-06T06:18:49.679Z,39
2023-03-06T06:20:49.755Z,45
2023-03-06T06:22:49.839Z,45
2023-03-06T06:24:49.921Z,45
2023-03-06T06:26:50.008Z,59
2023-03-06T06:28:50.088Z,64
2023-03-06T06:30:50.205Z,54
2023-03-06T06:32:50.289Z,55
2023-03-06T06:34:50.383Z,60
2023-03-06T06:36:52.917Z,63
2023-03-06T06:38:50.588Z,62
2023-03-06T06:41:26.812Z,55
2023-03-06T06:42:50.677Z,58
2023-03-06T06:44:50.769Z,61
2023-03-06T06:47:22.409Z,66
2023-03-06T06:48:50.962Z,73
2023-03-06T06:50:51.068Z,70
2023-03-06T06:52:51.135Z,67
2023-03-06T06:54:51.197Z,67
2023-03-06T06:56:51.266Z,66
2023-03-06T06:58:51.338Z,66
2023-03-06T07:00:51.421Z,65
2023-03-06T07:03:21.667Z,64
2023-03-06T07:09:21.842Z,67
2023-03-06T07:13:22.055Z,58
2023-03-06T07:15:22.142Z,54
2023-03-06T07:17:22.263Z,58
2023-03-06T07:19:22.506Z,71
2023-03-06T07:21:22.500Z,57
2023-03-06T07:23:22.616Z,82
2023-03-06T07:27:22.844Z,66
2023-03-06T07:29:22.921Z,60
2023-03-06T07:31:23.200Z,59
2023-03-06T07:33:23.140Z,71
2023-03-06T07:35:23.260Z,64
2023-03-06T07:37:23.369Z,57
2023-03-06T08:07:02.441Z,37
2023-03-06T08:09:01.996Z,34
2023-03-06T08:11:02.053Z,34
2023-03-06T08:13:02.183Z,33
2023-03-06T08:15:02.221Z,33
2023-03-06T08:19:02.442Z,58
2023-03-06T08:21:02.498Z,43
2023-03-06T08:23:02.622Z,48
2023-03-06T08:25:02.713Z,56
2023-03-06T08:27:02.872Z,36
2023-03-06T08:29:02.990Z,39
2023-03-06T08:31:03.074Z,35
2023-03-06T08:33:03.163Z,40
2023-03-06T08:35:03.260Z,59
2023-03-06T08:37:03.344Z,45
2023-03-06T08:39:03.469Z,40
2023-03-06T08:41:03.510Z,27
2023-03-06T08:43:03.904Z,26
2023-03-06T08:45:03.690Z,23
2023-03-06T08:49:03.864Z,26
2023-03-06T08:51:03.980Z,27
2023-03-06T08:53:04.055Z,24
2023-03-06T08:55:04.160Z,23
2023-03-06T08:57:04.242Z,23
2023-03-06T08:59:04.364Z,23
2023-03-06T09:01:04.572Z,22
2023-03-06T09:03:04.551Z,23
2023-03-06T09:05:04.612Z,24
2023-03-06T09:07:04.729Z,24
2023-03-06T09:09:04.808Z,23
2023-03-06T09:11:04.861Z,22
2023-03-06T09:13:04.960Z,24
2023-03-06T09:15:05.036Z,23
2023-03-06T09:17:05.155Z,22
2023-03-06T09:19:05.228Z,22
2023-03-06T09:21:05.343Z,23
2023-03-06T09:23:05.407Z,23
2023-03-06T09:25:05.531Z,24
2023-03-06T09:27:05.690Z,41
2023-03-06T09:29:05.696Z,31
2023-03-06T09:31:05.768Z,29
2023-03-06T09:33:05.844Z,39
2023-03-06T09:35:06.004Z,31
2023-03-06T09:37:05.997Z,50
2023-03-06T09:39:06.100Z,37
2023-03-06T09:41:06.208Z,35
2023-03-06T09:43:06.414Z,29
2023-03-06T09:45:06.384Z,30
2023-03-06T09:47:06.484Z,33
2023-03-06T09:49:06.555Z,34
2023-03-06T09:51:06.606Z,37
2023-03-06T09:53:36.772Z,37
2023-03-06T09:55:36.898Z,32
2023-03-06T09:57:36.992Z,34
2023-03-06T09:59:37.111Z,31
2023-03-06T10:01:37.225Z,30
2023-03-06T10:03:37.335Z,29
2023-03-06T10:05:37.553Z,32
2023-03-06T10:07:37.569Z,27
2023-03-06T10:09:37.688Z,25
2023-03-06T10:11:37.815Z,28
2023-03-06T10:13:37.899Z,24
2023-03-06T10:15:38.034Z,22
2023-03-06T10:17:38.186Z,23
2023-03-06T10:19:38.281Z,29
2023-03-06T10:21:38.372Z,26
2023-03-06T10:23:38.637Z,27
2023-03-06T10:25:38.613Z,22
2023-03-06T10:27:38.710Z,21
2023-03-06T10:29:39.281Z,21
2023-03-06T10:31:38.917Z,23
2023-03-06T10:33:39.024Z,22
2023-03-06T10:35:39.216Z,20
2023-03-06T10:37:39.244Z,22
2023-03-06T10:39:39.416Z,21
2023-03-06T10:41:39.442Z,22
2023-03-06T10:43:39.570Z,19
2023-03-06T10:45:48.943Z,21
2023-03-06T10:47:39.766Z,21
2023-03-06T10:49:39.881Z,21
2023-03-06T10:51:39.995Z,20
2023-03-06T10:53:40.110Z,21
2023-03-06T10:55:40.219Z,20
2023-03-06T10:57:40.326Z,21
2023-03-06T10:59:40.389Z,18
2023-03-06T11:01:40.522Z,21
2023-03-06T11:03:40.611Z,28
2023-03-06T11:05:40.742Z,29
2023-03-06T11:07:40.807Z,20
2023-03-06T11:09:40.884Z,19
2023-03-06T11:11:41.183Z,21
2023-03-06T11:13:41.127Z,17
2023-03-06T11:15:41.350Z,23
2023-03-06T11:17:41.318Z,22
2023-03-06T11:19:41.438Z,18
2023-03-06T11:21:41.535Z,17
2023-03-06T11:23:41.660Z,19
2023-03-06T11:25:41.783Z,17
2023-03-06T11:27:41.871Z,18
2023-03-06T11:29:42.033Z,14
2023-03-06T11:31:42.124Z,13
2023-03-06T11:33:42.163Z,13
2023-03-06T11:35:42.304Z,14
2023-03-06T11:37:42.321Z,12
2023-03-06T11:39:42.438Z,17
2023-03-06T11:41:42.533Z,16
2023-03-06T11:43:42.605Z,16
2023-03-06T11:45:42.769Z,12
2023-03-06T11:47:42.813Z,12
2023-03-06T11:49:42.885Z,11
2023-03-06T11:53:43.118Z,10
2023-03-06T11:55:43.193Z,10
2023-03-06T11:57:43.273Z,9
2023-03-06T11:59:43.372Z,9
2023-03-06T12:01:43.494Z,8
2023-03-06T12:03:43.554Z,9
2023-03-06T12:05:43.711Z,11
2023-03-06T12:07:43.751Z,10
2023-03-06T12:09:43.842Z,9
2023-03-06T12:11:43.966Z,9
2023-03-06T12:13:44.056Z,9
2023-03-06T12:15:44.151Z,8
2023-03-06T12:17:44.207Z,8
2023-03-06T12:19:44.326Z,8
2023-03-06T12:21:44.397Z,8
2023-03-06T12:23:44.477Z,7
2023-03-06T12:25:44.561Z,7
2023-03-06T12:27:44.621Z,7
2023-03-06T12:29:44.696Z,8
2023-03-06T12:31:44.881Z,7
2023-03-06T12:33:44.886Z,7
2023-03-06T12:35:44.996Z,8
2023-03-06T12:37:45.048Z,7
2023-03-06T12:39:45.124Z,9
2023-03-06T12:41:45.246Z,11
2023-03-06T12:43:45.482Z,12
2023-03-06T12:45:45.430Z,18
2023-03-06T12:47:45.515Z,20
2023-03-06T12:49:47.487Z,13
2023-03-06T12:51:45.676Z,25
2023-03-06T12:53:45.767Z,50
2023-03-06T12:55:45.951Z,66
2023-03-06T12:57:45.939Z,96
2023-03-06T12:59:46.029Z,165
2023-03-06T13:01:46.214Z,46
2023-03-06T13:03:46.218Z,132
2023-03-06T13:05:46.280Z,53
2023-03-06T13:07:46.378Z,32
2023-03-06T13:09:46.424Z,21
2023-03-06T13:11:46.532Z,16
2023-03-06T13:13:46.603Z,38
2023-03-06T13:15:46.694Z,18
2023-03-06T13:18:16.808Z,15
2023-03-06T13:20:16.894Z,13
2023-03-06T13:22:16.975Z,7
2023-03-06T13:26:17.208Z,7
2023-03-06T13:28:17.284Z,10
2023-03-06T13:30:17.384Z,10
2023-03-06T13:32:17.602Z,11
2023-03-06T13:34:17.635Z,9
2023-03-06T13:36:17.734Z,8
2023-03-06T13:38:17.834Z,27
2023-03-06T13:40:17.910Z,26
2023-03-06T13:42:17.998Z,12
2023-03-06T13:44:18.137Z,20
2023-03-06T13:46:18.230Z,31
2023-03-06T13:48:33.900Z,13
2023-03-06T13:50:18.437Z,15
2023-03-06T13:52:18.552Z,44
2023-03-06T13:54:18.655Z,26
2023-03-06T13:56:18.776Z,13
2023-03-06T13:58:18.864Z,11
2023-03-06T14:00:18.938Z,7
2023-03-06T14:02:19.036Z,6
2023-03-06T14:04:19.126Z,7
2023-03-06T14:06:19.237Z,6
2023-03-06T14:08:19.346Z,6
2023-03-06T14:10:19.422Z,5
2023-03-06T14:12:19.535Z,5
2023-03-06T14:14:19.674Z,6
2023-03-06T14:16:19.832Z,10
2023-03-06T14:18:19.830Z,7
2023-03-06T14:20:19.938Z,9
2023-03-06T14:22:20.042Z,9
2023-03-06T14:24:20.161Z,9
2023-03-06T14:26:20.228Z,7
2023-03-06T14:28:20.462Z,8
2023-03-06T14:30:20.453Z,15
2023-03-06T14:32:20.657Z,14
2023-03-06T14:34:20.601Z,12
2023-03-06T14:36:20.718Z,13
2023-03-06T14:38:20.821Z,14
2023-03-06T14:40:20.931Z,16
2023-03-06T14:42:21.055Z,15
2023-03-06T14:44:21.132Z,12
2023-03-06T14:48:21.326Z,12
2023-03-06T14:50:21.419Z,9
2023-03-06T14:52:21.513Z,7
2023-03-06T14:54:21.613Z,7
2023-03-06T14:58:21.822Z,9
2023-03-06T15:00:21.911Z,11
2023-03-06T15:02:22.010Z,7
2023-03-06T15:04:22.085Z,7
2023-03-06T15:06:22.173Z,4
2023-03-06T15:08:22.287Z,4
2023-03-06T15:10:22.346Z,5
2023-03-06T15:12:22.420Z,4
2023-03-06T15:14:22.497Z,4
2023-03-06T15:16:22.616Z,4
2023-03-06T15:18:22.709Z,6
2023-03-06T15:20:22.967Z,6
2023-03-06T15:22:22.842Z,5
2023-03-06T15:24:22.956Z,5
2023-03-06T15:26:23.020Z,6
2023-03-06T15:28:23.174Z,5
2023-03-06T15:30:23.201Z,7
2023-03-06T15:32:23.307Z,7
2023-03-06T15:34:23.755Z,6
2023-03-06T15:36:23.478Z,7
2023-03-06T15:38:23.563Z,8
2023-03-06T15:40:23.659Z,6
2023-03-06T15:42:23.735Z,5
2023-03-06T15:44:23.849Z,6
2023-03-06T15:46:23.931Z,6
2023-03-06T15:48:24.076Z,7
2023-03-06T15:52:24.201Z,7
2023-03-06T15:54:24.274Z,8
2023-03-06T15:56:24.390Z,13
2023-03-06T15:58:24.452Z,11
2023-03-06T16:00:27.668Z,8
2023-03-06T16:02:24.622Z,7
2023-03-06T16:06:24.809Z,8
2023-03-06T16:08:54.926Z,7
2023-03-06T16:10:55.048Z,8
2023-03-06T16:14:55.289Z,7
2023-03-06T16:16:55.436Z,7
2023-03-06T16:18:55.476Z,7
2023-03-06T16:20:55.605Z,6
2023-03-06T16:22:55.757Z,20
2023-03-06T16:24:55.836Z,48
2023-03-06T16:26:55.965Z,71
2023-03-06T16:28:56.015Z,8
2023-03-06T16:30:56.177Z,9
2023-03-06T16:32:56.263Z,22
2023-03-06T16:34:56.389Z,35
2023-03-06T16:36:56.548Z,51
2023-03-06T16:38:56.596Z,136
2023-03-06T16:40:56.692Z,25
2023-03-06T16:42:56.797Z,72
2023-03-06T16:44:56.933Z,50
2023-03-06T16:46:57.027Z,42
2023-03-06T16:48:57.168Z,34
2023-03-06T16:50:57.242Z,35
2023-03-06T16:52:57.376Z,17
2023-03-06T16:54:57.581Z,17
2023-03-06T16:56:57.593Z,14
2023-03-06T16:58:57.713Z,16
2023-03-06T17:00:57.803Z,18
2023-03-06T17:02:57.911Z,14
2023-03-06T17:04:58.039Z,11
2023-03-06T17:06:58.143Z,13
2023-03-06T17:08:58.240Z,16
2023-03-06T17:10:58.347Z,26
2023-03-06T17:12:58.469Z,17
2023-03-06T17:14:58.557Z,20
2023-03-06T17:16:58.688Z,10
2023-03-06T17:18:58.786Z,12
2023-03-06T17:20:58.859Z,9
2023-03-06T17:22:58.973Z,8
2023-03-06T17:24:59.063Z,10
2023-03-06T17:26:59.213Z,9
2023-03-06T17:28:59.266Z,7
2023-03-06T17:30:59.445Z,7
2023-03-06T17:32:59.498Z,8
2023-03-06T17:34:59.605Z,10
2023-03-06T17:36:59.712Z,11
2023-03-06T17:38:59.798Z,11
2023-03-06T17:40:59.932Z,12
2023-03-06T17:43:00.008Z,11
2023-03-06T17:45:00.151Z,12
2023-03-06T17:47:00.257Z,12
2023-03-06T17:49:00.324Z,13
2023-03-06T17:51:00.430Z,11
2023-03-06T17:53:00.514Z,9
2023-03-06T17:55:00.628Z,7
2023-03-06T17:57:00.745Z,7
2023-03-06T17:59:00.822Z,7
2023-03-06T18:01:00.938Z,8
2023-03-06T18:05:01.167Z,8
2023-03-06T18:07:01.264Z,9
2023-03-06T18:09:01.351Z,13
2023-03-06T18:11:01.454Z,16
2023-03-06T18:13:01.508Z,24
2023-03-06T18:15:01.617Z,17
2023-03-06T18:17:01.743Z,12
2023-03-06T18:19:01.744Z,12
2023-03-06T18:21:01.855Z,10
2023-03-06T18:23:01.957Z,8
2023-03-06T18:27:02.203Z,19
2023-03-06T18:29:02.233Z,14
2023-03-06T18:31:02.367Z,13
2023-03-06T18:33:02.464Z,12
2023-03-06T18:35:02.577Z,12
2023-03-06T18:37:02.657Z,11
2023-03-06T18:39:02.731Z,12
2023-03-06T18:41:02.853Z,11
2023-03-06T18:43:02.932Z,17
2023-03-06T18:45:02.999Z,20
2023-03-06T18:47:03.131Z,16
2023-03-06T18:49:03.181Z,11
2023-03-06T18:51:03.289Z,9
2023-03-06T18:53:03.362Z,8
2023-03-06T18:55:03.465Z,9
2023-03-06T18:57:03.577Z,9
2023-03-06T18:59:03.641Z,10
2023-03-06T19:01:03.768Z,11
2023-03-06T19:03:03.797Z,10
2023-03-06T19:05:03.897Z,12
2023-03-06T19:07:04.006Z,11
2023-03-06T19:09:04.097Z,12
2023-03-06T19:11:04.181Z,12
2023-03-06T19:13:04.260Z,13
2023-03-06T19:15:04.332Z,13
2023-03-06T19:17:04.459Z,17
2023-03-06T19:19:04.566Z,18
2023-03-06T19:21:04.624Z,16
2023-03-06T19:23:04.748Z,15
2023-03-06T19:25:04.850Z,16
2023-03-06T19:27:04.890Z,15
2023-03-06T19:29:04.972Z,14
2023-03-06T19:31:05.057Z,13
2023-03-06T19:33:05.145Z,12
2023-03-06T19:35:05.246Z,12
2023-03-06T19:37:05.346Z,11
2023-03-06T19:39:05.427Z,11
2023-03-06T19:41:05.507Z,11
2023-03-06T19:43:05.603Z,10
2023-03-06T19:45:05.682Z,9
2023-03-06T19:47:05.794Z,9
2023-03-06T19:49:05.876Z,9
2023-03-06T19:51:06.075Z,10
2023-03-06T19:53:06.042Z,9
2023-03-06T19:55:06.141Z,9
2023-03-06T19:57:06.253Z,9
2023-03-06T19:59:06.342Z,8
2023-03-06T20:01:06.499Z,7
2023-03-06T20:03:06.491Z,9
2023-03-06T20:05:36.693Z,8
2023-03-06T20:07:36.773Z,12
2023-03-06T20:09:36.860Z,10
2023-03-06T20:11:36.934Z,10
2023-03-06T20:13:39.463Z,9
2023-03-06T20:15:37.257Z,7
2023-03-06T20:17:37.315Z,7
2023-03-06T20:19:37.416Z,9
2023-03-06T20:23:37.748Z,8
2023-03-06T20:27:37.877Z,11
2023-03-06T20:29:38.003Z,10
2023-03-06T20:31:38.143Z,10
2023-03-06T20:33:38.238Z,9
2023-03-06T20:35:38.390Z,9
2023-03-06T20:37:38.475Z,7
2023-03-06T20:39:38.583Z,8
2023-03-06T20:41:38.702Z,6
2023-03-06T20:47:39.148Z,6
2023-03-06T20:49:39.150Z,6
2023-03-06T20:51:39.339Z,6
2023-03-06T20:53:39.377Z,5
2023-03-06T20:55:39.494Z,5
2023-03-06T20:57:39.612Z,5
2023-03-06T20:59:39.695Z,5
2023-03-06T21:01:39.904Z,4
2023-03-06T21:03:39.917Z,6
2023-03-06T21:05:40.068Z,7
2023-03-06T21:07:40.171Z,6
2023-03-06T21:09:40.289Z,5
2023-03-06T21:11:40.404Z,5
2023-03-06T21:13:40.481Z,5
2023-03-06T21:15:40.592Z,5
2023-03-06T21:17:40.727Z,5
2023-03-06T21:19:40.837Z,5
2023-03-06T21:21:40.951Z,4
2023-03-06T21:23:41.300Z,5
2023-03-06T21:25:41.181Z,5
2023-03-06T21:27:41.257Z,5
2023-03-06T21:31:41.587Z,5
2023-03-06T21:33:41.592Z,5
2023-03-06T21:35:41.727Z,5
2023-03-06T21:37:41.803Z,5
2023-03-06T21:39:42.004Z,6
2023-03-06T21:41:42.048Z,6
2023-03-06T21:43:42.096Z,7
2023-03-06T21:45:42.243Z,8
2023-03-06T21:47:42.302Z,9
2023-03-06T21:49:42.437Z,9
2023-03-06T21:51:42.506Z,10
2023-03-06T21:53:42.663Z,11
2023-03-06T21:57:42.824Z,12
2023-03-06T21:59:43.012Z,10
2023-03-06T22:01:43.031Z,10
2023-03-06T22:03:43.102Z,12
2023-03-06T22:07:43.324Z,13
2023-03-06T22:09:43.411Z,13
2023-03-06T22:11:43.540Z,15
2023-03-06T22:15:43.722Z,18
2023-03-06T22:17:43.803Z,20
2023-03-06T22:19:43.890Z,25
2023-03-06T22:21:43.989Z,30
2023-03-06T22:23:44.171Z,29
2023-03-06T22:25:44.202Z,37
2023-03-06T22:27:44.307Z,29
2023-03-06T22:29:44.432Z,32
2023-03-06T22:31:44.630Z,29
2023-03-06T22:33:44.623Z,28
2023-03-06T22:37:44.784Z,27
2023-03-06T22:39:44.880Z,26
2023-03-06T22:41:45.014Z,24
2023-03-06T22:43:45.072Z,24
2023-03-06T22:45:45.198Z,23
2023-03-06T22:47:45.712Z,25
2023-03-06T22:49:45.389Z,24
2023-03-06T22:51:45.495Z,25
2023-03-06T22:53:45.578Z,24
2023-03-06T22:55:45.755Z,24
2023-03-06T22:57:45.784Z,21
2023-03-06T22:59:45.918Z,19
2023-03-06T23:01:46.037Z,17
2023-03-06T23:03:46.091Z,11
2023-03-06T23:05:46.362Z,12
2023-03-06T23:07:46.284Z,12
2023-03-06T23:09:46.395Z,11
2023-03-06T23:11:46.592Z,8
2023-03-06T23:13:46.577Z,9
2023-03-06T23:15:46.730Z,10
2023-03-06T23:17:46.759Z,10
2023-03-06T23:19:46.860Z,10
2023-03-06T23:21:46.950Z,11
2023-03-06T23:23:47.043Z,11
2023-03-06T23:25:47.158Z,10
2023-03-06T23:27:47.265Z,9
2023-03-06T23:29:47.338Z,9
2023-03-06T23:31:47.396Z,8
2023-03-06T23:33:47.563Z,7
2023-03-06T23:35:47.657Z,10
2023-03-06T23:37:47.717Z,9
2023-03-06T23:39:47.851Z,9
2023-03-06T23:41:47.920Z,12
2023-03-06T23:43:48.007Z,13
2023-03-06T23:45:48.225Z,18
2023-03-06T23:47:48.215Z,18
2023-03-06T23:49:48.275Z,15
2023-03-06T23:51:48.378Z,14
2023-03-06T23:53:48.497Z,15
2023-03-06T23:55:48.591Z,14
2023-03-06T23:57:48.688Z,14
2023-03-06T23:59:48.794Z,14
